Saint Marys, Pennsylvania
Current Conditions -  °F | °C
As of 4:53 PM on Tuesday 25 Nov 2014 (Local Time) from KDUJ Reporting Station
Scattered Clouds Scattered Clouds  
Wind Chill: 31°   Ceiling: Unl
Heat Index: 39°   Visibility: 10mi
Dew Point: 27°   Wind: 13mph
Humidity: 62%   Direction: 280°W
Pressure: 30.02"   Gusts: NA
Location:  41.43°N, 78.56°W
Report Text: KDUJ 252153Z AUTO 28011KT 10SM SCT047 04/M03 A3002 RMK AO2 SLP177 T00391028
Loading
Personal Weather Stations






























Interactive Weather Map New forecast layout! Learn more

10-Day Weather Forecast

Advertisements
Track Severe Weather on mobile